Time;durP1;ratioP1;P1;durP2;ratioP2;P2;SDS_P1;SDS_P2;PMS_P1;PMS_P2;Temp;Humidity;BMP_temperature;BMP_pressure;BME280_temperature;BME280_humidity;BME280_pressure;Samples;Min_cycle;Max_cycle;Signal;HPM_P1;HPM_P2
2023/06/01 00:02:03;;;;;;;9.43;4.13;;;19.60;55.00;;;;;;5035166;28;20243;-74
2023/06/01 00:04:30;;;;;;;8.27;4.40;;;19.50;54.90;;;;;;5051840;28;21064;-74
2023/06/01 00:06:59;;;;;;;9.40;4.63;;;19.60;55.00;;;;;;5052580;28;20206;-74
2023/06/01 00:09:26;;;;;;;9.00;4.40;;;19.50;54.90;;;;;;5053078;28;20212;-74
2023/06/01 00:11:55;;;;;;;9.13;4.15;;;19.50;54.90;;;;;;5053171;28;20567;-74
2023/06/01 00:14:22;;;;;;;10.95;4.93;;;19.60;55.00;;;;;;5053571;28;20215;-74
2023/06/01 00:16:50;;;;;;;9.32;4.28;;;19.60;55.00;;;;;;5053194;28;20198;-74
2023/06/01 00:19:17;;;;;;;9.15;4.30;;;19.60;55.00;;;;;;5053304;28;20217;-74
2023/06/01 00:21:44;;;;;;;9.93;4.22;;;19.60;54.90;;;;;;5035139;28;20192;-74
2023/06/01 00:24:11;;;;;;;10.52;4.47;;;19.50;54.90;;;;;;5052458;28;20243;-74
2023/06/01 00:26:38;;;;;;;9.52;4.47;;;19.60;55.00;;;;;;5053131;28;20191;-74
2023/06/01 00:29:07;;;;;;;13.23;4.15;;;19.50;54.90;;;;;;5052700;28;20194;-74
2023/06/01 00:31:34;;;;;;;7.80;3.80;;;19.50;54.90;;;;;;5052994;28;20194;-74
2023/06/01 00:34:01;;;;;;;8.50;4.00;;;19.60;55.00;;;;;;5052906;28;20291;-75
2023/06/01 00:36:28;;;;;;;9.80;4.43;;;19.50;54.90;;;;;;5052940;28;20190;-74
2023/06/01 00:39:01;;;;;;;10.43;4.20;;;19.50;54.90;;;;;;5052802;28;20764;-74
2023/06/01 00:41:28;;;;;;;10.68;4.63;;;19.50;54.90;;;;;;5052690;28;20223;-73
2023/06/01 00:43:55;;;;;;;10.63;4.15;;;19.50;54.90;;;;;;5052808;28;20588;-74
2023/06/01 00:46:24;;;;;;;9.95;4.40;;;19.50;54.90;;;;;;5052522;28;20188;-74
2023/06/01 00:48:52;;;;;;;11.25;4.20;;;19.50;54.90;;;;;;5052212;28;20190;-74
2023/06/01 00:51:19;;;;;;;8.43;4.47;;;19.50;54.90;;;;;;5035069;28;20282;-74
2023/06/01 00:53:47;;;;;;;9.23;4.25;;;19.50;54.90;;;;;;5035366;28;20187;-74
2023/06/01 00:56:14;;;;;;;9.55;4.40;;;19.50;54.90;;;;;;5052840;28;20215;-74
2023/06/01 00:58:42;;;;;;;10.52;4.15;;;19.50;54.90;;;;;;5052906;28;20665;-74
2023/06/01 01:01:18;;;;;;;9.70;4.32;;;19.50;54.90;;;;;;5052764;28;20231;-74
2023/06/01 01:03:49;;;;;;;12.70;4.53;;;19.50;55.00;;;;;;5052806;28;20192;-74
2023/06/01 01:06:26;;;;;;;9.00;4.63;;;19.50;55.00;;;;;;5052801;28;20195;-74
2023/06/01 01:09:07;;;;;;;14.02;5.05;;;19.50;55.00;;;;;;5052956;28;20199;-74
2023/06/01 01:11:37;;;;;;;9.35;4.80;;;19.50;54.90;;;;;;5052743;28;20211;-74
2023/06/01 01:14:12;;;;;;;10.82;4.90;;;19.50;54.90;;;;;;5051660;28;20677;-74
2023/06/01 01:16:46;;;;;;;12.95;4.43;;;19.40;54.80;;;;;;5052650;28;20184;-74
2023/06/01 01:19:32;;;;;;;10.18;4.20;;;19.40;54.90;;;;;;5052638;28;20194;-74
2023/06/01 01:22:16;;;;;;;11.98;4.22;;;19.40;54.90;;;;;;5052778;28;20225;-74
2023/06/01 01:24:56;;;;;;;9.60;4.45;;;19.40;54.90;;;;;;5052501;28;20253;-74
2023/06/01 01:27:37;;;;;;;12.25;5.13;;;19.40;54.90;;;;;;5052544;28;20283;-75
2023/06/01 01:30:08;;;;;;;10.80;4.45;;;19.40;54.90;;;;;;5052511;28;20261;-74
2023/06/01 01:32:38;;;;;;;8.80;4.43;;;19.40;54.90;;;;;;5052112;28;20650;-74
2023/06/01 01:35:08;;;;;;;9.93;4.57;;;19.40;54.90;;;;;;5052698;28;20298;-74
2023/06/01 01:37:35;;;;;;;10.20;4.60;;;19.40;54.90;;;;;;5052112;28;20192;-74
2023/06/01 01:40:02;;;;;;;12.50;5.03;;;19.40;54.90;;;;;;5034448;28;20219;-74
2023/06/01 01:42:29;;;;;;;8.38;4.50;;;19.40;54.90;;;;;;5052507;28;20222;-74
2023/06/01 01:44:57;;;;;;;10.43;4.28;;;19.40;54.90;;;;;;5051746;28;20813;-74
2023/06/01 01:47:35;;;;;;;11.00;4.18;;;19.40;54.90;;;;;;5052274;28;20192;-74
2023/06/01 01:50:07;;;;;;;12.50;4.75;;;19.40;54.90;;;;;;5052067;28;20700;-74
2023/06/01 01:52:38;;;;;;;9.35;4.47;;;19.40;54.90;;;;;;5052521;28;20191;-74
2023/06/01 01:55:08;;;;;;;11.13;4.68;;;19.40;55.00;;;;;;5052210;28;20215;-74
2023/06/01 01:57:36;;;;;;;12.77;4.80;;;19.30;54.80;;;;;;5052192;28;20187;-74
2023/06/01 02:00:04;;;;;;;12.05;4.45;;;19.40;55.00;;;;;;5034870;28;20219;-74
2023/06/01 02:02:33;;;;;;;11.65;4.80;;;19.30;54.90;;;;;;5051673;28;20318;-74
2023/06/01 02:05:00;;;;;;;8.45;4.18;;;19.30;54.80;;;;;;5051969;28;20231;-74
2023/06/01 02:07:27;;;;;;;8.38;4.30;;;19.40;54.90;;;;;;5052348;28;20227;-74
2023/06/01 02:09:54;;;;;;;12.48;4.78;;;19.30;54.80;;;;;;5051732;28;20738;-74
2023/06/01 02:12:21;;;;;;;11.02;4.60;;;19.30;54.80;;;;;;5051807;28;20192;-74
2023/06/01 02:14:48;;;;;;;10.00;4.57;;;19.30;55.50;;;;;;5051960;28;20219;-74
2023/06/01 02:17:15;;;;;;;8.75;4.07;;;19.30;54.90;;;;;;5052094;28;20194;-74
2023/06/01 02:19:45;;;;;;;9.10;4.53;;;19.30;54.90;;;;;;5051908;28;20223;-74
2023/06/01 02:22:12;;;;;;;9.18;4.65;;;19.30;54.80;;;;;;5051888;28;20188;-74
2023/06/01 02:24:39;;;;;;;10.25;4.68;;;19.30;54.80;;;;;;5053971;28;20241;-74
2023/06/01 02:27:06;;;;;;;7.65;4.45;;;19.30;54.90;;;;;;5055529;28;20198;-74
2023/06/01 02:29:33;;;;;;;9.07;4.40;;;19.30;54.80;;;;;;5055800;28;20216;-74
2023/06/01 02:32:00;;;;;;;12.30;4.97;;;19.30;54.90;;;;;;5055610;28;20717;-74
2023/06/01 02:34:27;;;;;;;10.80;4.70;;;19.30;54.90;;;;;;5055310;28;20306;-74
2023/06/01 02:36:57;;;;;;;9.43;4.72;;;19.30;54.90;;;;;;5055902;28;20192;-74
2023/06/01 02:39:24;;;;;;;9.45;4.43;;;19.30;54.90;;;;;;5055317;28;20219;-74
2023/06/01 02:41:51;;;;;;;9.27;4.75;;;19.30;55.50;;;;;;5055252;28;20569;-74
2023/06/01 02:44:18;;;;;;;9.82;4.40;;;19.30;55.00;;;;;;5055369;28;20188;-74
2023/06/01 02:46:45;;;;;;;12.07;4.32;;;19.30;55.00;;;;;;5055037;28;20194;-74
2023/06/01 02:49:12;;;;;;;8.55;4.35;;;19.30;55.00;;;;;;5055453;28;20194;-74
2023/06/01 02:51:39;;;;;;;10.00;4.45;;;19.30;55.00;;;;;;5055627;28;20191;-74
2023/06/01 02:54:08;;;;;;;9.95;4.75;;;19.30;55.00;;;;;;5055160;28;20198;-74
2023/06/01 02:56:35;;;;;;;10.20;4.53;;;19.30;54.90;;;;;;5055459;28;20187;-74
2023/06/01 02:59:03;;;;;;;10.98;4.80;;;19.30;54.90;;;;;;5055436;28;20183;-74
2023/06/01 03:01:35;;;;;;;9.45;4.85;;;19.20;54.90;;;;;;5055052;28;20269;-74
2023/06/01 03:04:03;;;;;;;8.60;4.53;;;19.20;54.90;;;;;;5054848;28;20194;-74
2023/06/01 03:06:32;;;;;;;10.15;4.38;;;19.30;55.00;;;;;;5037601;28;20868;-74
2023/06/01 03:08:59;;;;;;;8.48;4.80;;;19.30;55.00;;;;;;5054672;28;20203;-75
2023/06/01 03:11:28;;;;;;;11.05;4.57;;;19.30;55.00;;;;;;5054959;28;20227;-74
2023/06/01 03:13:56;;;;;;;7.78;3.90;;;19.30;55.00;;;;;;5020843;28;20207;-74
2023/06/01 03:16:23;;;;;;;9.88;4.30;;;19.30;55.00;;;;;;5054757;28;20704;-74
2023/06/01 03:18:52;;;;;;;6.60;4.00;;;19.20;54.90;;;;;;5054542;28;20203;-74
2023/06/01 03:21:19;;;;;;;8.02;4.03;;;19.30;55.00;;;;;;5054517;28;20302;-74
2023/06/01 03:23:46;;;;;;;9.93;4.10;;;19.20;54.90;;;;;;5054865;28;20198;-74
2023/06/01 03:26:13;;;;;;;9.85;4.47;;;19.20;54.90;;;;;;5036933;28;20235;-75
2023/06/01 03:28:42;;;;;;;8.07;4.50;;;19.20;54.90;;;;;;5054852;28;20192;-74
2023/06/01 03:31:11;;;;;;;9.35;4.15;;;19.20;54.90;;;;;;5054484;28;20302;-74
2023/06/01 03:33:38;;;;;;;12.95;5.00;;;19.20;55.50;;;;;;5054623;28;20254;-74
2023/06/01 03:36:07;;;;;;;7.78;3.92;;;19.20;54.90;;;;;;5053948;28;20216;-74
2023/06/01 03:38:34;;;;;;;11.07;4.38;;;19.20;54.90;;;;;;5054406;28;20657;-74
2023/06/01 03:41:01;;;;;;;10.48;4.47;;;19.20;54.90;;;;;;5054239;28;20219;-74
2023/06/01 03:43:28;;;;;;;10.15;4.32;;;19.20;55.00;;;;;;5054642;28;20198;-74
2023/06/01 03:45:57;;;;;;;10.52;4.65;;;19.20;55.00;;;;;;5054274;28;20227;-74
2023/06/01 03:48:25;;;;;;;9.43;4.30;;;19.20;55.00;;;;;;5054369;28;20187;-74
2023/06/01 03:50:52;;;;;;;8.00;4.28;;;19.20;55.00;;;;;;5054126;28;20215;-74
2023/06/01 03:53:19;;;;;;;10.88;4.32;;;19.20;55.00;;;;;;5054187;28;20188;-74
2023/06/01 03:55:48;;;;;;;10.30;5.05;;;19.10;54.80;;;;;;5054387;28;20233;-74
2023/06/01 03:58:15;;;;;;;12.70;5.72;;;19.20;55.00;;;;;;5054095;28;20192;-73
2023/06/01 04:00:43;;;;;;;8.40;4.13;;;19.20;54.90;;;;;;5032569;28;20228;-74
2023/06/01 04:03:12;;;;;;;10.35;4.50;;;19.20;54.90;;;;;;5017181;28;20287;-74
2023/06/01 04:05:39;;;;;;;6.28;3.60;;;19.20;54.90;;;;;;5034206;28;20318;-75
2023/06/01 04:08:06;;;;;;;10.65;4.60;;;19.20;54.90;;;;;;5034074;28;20196;-74
2023/06/01 04:10:33;;;;;;;8.52;4.90;;;19.20;54.90;;;;;;5033928;28;20234;-74
2023/06/01 04:13:00;;;;;;;12.18;5.03;;;19.20;55.00;;;;;;5033960;28;20196;-74
2023/06/01 04:15:27;;;;;;;10.07;4.85;;;19.20;54.90;;;;;;5016076;28;20698;-74
2023/06/01 04:17:54;;;;;;;11.98;4.80;;;19.20;55.50;;;;;;5033651;28;20674;-74
2023/06/01 04:20:24;;;;;;;12.57;5.07;;;19.10;54.90;;;;;;5033823;28;20598;-74
2023/06/01 04:22:51;;;;;;;10.07;4.53;;;19.10;54.80;;;;;;5033832;28;20192;-74
2023/06/01 04:25:18;;;;;;;8.90;4.40;;;19.20;55.00;;;;;;5033681;28;20610;-74
2023/06/01 04:27:47;;;;;;;8.27;4.13;;;19.20;55.00;;;;;;5033373;28;20712;-74
2023/06/01 04:30:15;;;;;;;9.15;4.35;;;19.10;54.80;;;;;;5033254;28;20706;-74
2023/06/01 04:32:44;;;;;;;14.32;5.55;;;19.10;54.90;;;;;;5032294;28;20215;-74
2023/06/01 04:35:11;;;;;;;8.23;4.50;;;19.10;54.80;;;;;;5033559;28;20220;-74
2023/06/01 04:37:41;;;;;;;10.25;4.68;;;19.10;54.80;;;;;;4999890;28;20207;-74
2023/06/01 04:40:10;;;;;;;11.75;4.55;;;19.10;54.80;;;;;;5033479;28;20233;-75
2023/06/01 04:42:40;;;;;;;11.38;4.85;;;19.10;54.80;;;;;;5033054;28;20267;-74
2023/06/01 04:45:09;;;;;;;11.80;4.93;;;19.10;54.80;;;;;;5033196;28;20228;-74
2023/06/01 04:47:37;;;;;;;8.23;4.78;;;19.10;54.90;;;;;;5030734;28;20246;-74
2023/06/01 04:50:05;;;;;;;13.25;4.82;;;19.10;54.80;;;;;;5031745;28;20315;-74
2023/06/01 04:52:32;;;;;;;7.95;4.75;;;19.10;54.80;;;;;;5033147;28;20196;-74
2023/06/01 04:55:01;;;;;;;9.00;4.53;;;19.10;54.80;;;;;;5033108;28;20226;-74
2023/06/01 04:57:28;;;;;;;11.70;4.40;;;19.10;55.50;;;;;;5033318;28;20199;-74
2023/06/01 04:59:56;;;;;;;9.18;5.13;;;19.10;54.90;;;;;;5033120;28;20616;-74
2023/06/01 05:02:23;;;;;;;8.80;4.93;;;19.10;54.90;;;;;;5050767;28;20231;-74
2023/06/01 05:04:51;;;;;;;8.23;4.53;;;19.10;54.90;;;;;;5053003;28;20220;-74
2023/06/01 05:07:18;;;;;;;11.13;4.90;;;19.10;54.80;;;;;;5052746;28;20226;-74
2023/06/01 05:09:45;;;;;;;10.68;4.95;;;19.10;54.80;;;;;;5052799;28;20219;-74
2023/06/01 05:12:14;;;;;;;12.75;5.20;;;19.10;54.80;;;;;;5035172;28;20188;-74
2023/06/01 05:14:41;;;;;;;10.90;5.07;;;19.10;54.90;;;;;;5035007;28;20242;-74
2023/06/01 05:17:08;;;;;;;11.05;4.93;;;19.10;54.80;;;;;;5052691;28;20191;-74
2023/06/01 05:19:35;;;;;;;11.32;4.78;;;19.10;54.90;;;;;;5052123;28;20287;-74
2023/06/01 05:22:02;;;;;;;12.05;5.00;;;19.00;54.80;;;;;;5018283;28;20192;-74
2023/06/01 05:24:29;;;;;;;9.70;5.13;;;19.10;54.90;;;;;;5052467;28;20210;-74
2023/06/01 05:26:56;;;;;;;9.73;5.03;;;19.10;54.90;;;;;;5052527;28;20223;-74
2023/06/01 05:29:26;;;;;;;11.77;4.93;;;19.10;54.80;;;;;;5052408;28;20275;-74
2023/06/01 05:31:52;;;;;;;10.80;5.35;;;19.00;54.70;;;;;;5052522;28;20187;-74
2023/06/01 05:34:20;;;;;;;12.75;5.10;;;19.10;54.80;;;;;;5052212;28;20197;-74
2023/06/01 05:36:48;;;;;;;8.40;4.70;;;19.10;54.90;;;;;;5052556;28;20222;-74
2023/06/01 05:39:15;;;;;;;9.70;4.78;;;19.00;54.70;;;;;;5052509;28;20203;-74
2023/06/01 05:41:42;;;;;;;9.50;4.65;;;19.10;54.80;;;;;;5052769;28;20221;-74
2023/06/01 05:44:10;;;;;;;7.28;4.40;;;19.00;54.80;;;;;;5052599;28;20192;-74
2023/06/01 05:46:39;;;;;;;9.85;5.20;;;19.10;54.80;;;;;;5052225;28;20274;-74
2023/06/01 05:49:06;;;;;;;11.55;5.53;;;19.00;54.70;;;;;;5051960;28;20234;-74
2023/06/01 05:51:36;;;;;;;13.63;5.32;;;19.10;54.90;;;;;;5052387;28;20226;-74
2023/06/01 05:54:04;;;;;;;9.75;5.13;;;19.00;54.80;;;;;;5052265;28;20187;-74
2023/06/01 05:56:31;;;;;;;14.60;5.00;;;19.00;54.80;;;;;;5052568;28;20613;-74
2023/06/01 05:58:59;;;;;;;9.35;5.05;;;19.00;54.70;;;;;;5053012;28;20656;-74
2023/06/01 06:01:27;;;;;;;8.93;4.70;;;19.00;54.70;;;;;;5056008;28;20235;-74
2023/06/01 06:03:57;;;;;;;10.23;4.68;;;19.00;54.70;;;;;;5056298;28;20202;-74
2023/06/01 06:06:25;;;;;;;11.90;5.10;;;19.00;54.80;;;;;;5056298;28;20234;-74
2023/06/01 06:08:52;;;;;;;12.48;5.10;;;19.00;54.80;;;;;;5056196;28;20191;-74
2023/06/01 06:11:21;;;;;;;13.13;5.28;;;19.00;54.70;;;;;;5056267;28;20656;-74
2023/06/01 06:13:50;;;;;;;11.95;5.45;;;19.00;54.80;;;;;;5038548;28;20187;-74
2023/06/01 06:16:17;;;;;;;9.45;4.50;;;19.00;54.80;;;;;;5056284;28;20269;-74
2023/06/01 06:18:44;;;;;;;12.90;4.88;;;19.00;54.70;;;;;;5055704;28;20198;-74
2023/06/01 06:21:13;;;;;;;9.52;5.30;;;19.00;54.70;;;;;;5056125;28;20330;-74
2023/06/01 06:23:41;;;;;;;9.35;4.60;;;19.00;54.70;;;;;;5055624;28;20658;-74
2023/06/01 06:26:08;;;;;;;10.98;5.13;;;19.00;54.80;;;;;;5055848;28;20231;-74
2023/06/01 06:28:35;;;;;;;10.77;4.60;;;19.00;54.80;;;;;;5055739;28;20200;-74
2023/06/01 06:31:02;;;;;;;11.07;4.53;;;19.00;54.80;;;;;;5055948;28;20226;-74
2023/06/01 06:33:29;;;;;;;11.50;5.57;;;19.00;54.80;;;;;;5055765;28;20537;-74
2023/06/01 06:35:56;;;;;;;10.77;5.57;;;19.00;54.80;;;;;;5055438;28;20760;-74
2023/06/01 06:38:26;;;;;;;8.85;4.70;;;19.00;54.80;;;;;;5052262;28;20197;-74
2023/06/01 06:40:53;;;;;;;9.15;4.50;;;19.00;54.70;;;;;;5026032;28;20694;-74
2023/06/01 06:43:20;;;;;;;11.00;5.30;;;19.00;54.80;;;;;;5035442;28;20216;-74
2023/06/01 06:45:47;;;;;;;9.60;5.18;;;19.00;54.70;;;;;;5035242;28;20290;-76
2023/06/01 06:48:15;;;;;;;11.95;4.90;;;19.00;54.80;;;;;;5050037;28;20199;-75
2023/06/01 06:50:44;;;;;;;9.73;5.07;;;19.00;54.90;;;;;;5022884;28;20300;-76
2023/06/01 06:53:11;;;;;;;8.77;5.03;;;19.00;54.90;;;;;;5054895;28;20191;-77
2023/06/01 06:55:40;;;;;;;13.68;5.03;;;19.00;54.80;;;;;;5053880;28;20225;-76
2023/06/01 06:58:07;;;;;;;10.93;5.38;;;19.00;55.00;;;;;;5053445;28;20192;-76
2023/06/01 07:00:34;;;;;;;13.10;5.70;;;19.00;55.00;;;;;;5054024;28;20314;-76
2023/06/01 07:03:01;;;;;;;16.58;5.35;;;19.00;55.00;;;;;;5054035;28;20219;-76
2023/06/01 07:05:28;;;;;;;12.18;5.70;;;19.00;54.90;;;;;;5052647;28;20606;-76
2023/06/01 07:07:55;;;;;;;11.30;5.20;;;19.00;55.00;;;;;;5053193;28;20302;-76
2023/06/01 07:10:22;;;;;;;12.65;5.63;;;19.00;55.00;;;;;;5045700;28;20224;-75
2023/06/01 07:12:51;;;;;;;16.95;5.35;;;19.00;55.20;;;;;;5019970;28;20216;-75
2023/06/01 07:15:19;;;;;;;11.55;5.25;;;19.00;55.20;;;;;;5050858;28;20293;-75
2023/06/01 07:17:46;;;;;;;11.13;5.55;;;19.00;55.20;;;;;;5053896;28;20188;-75
2023/06/01 07:20:14;;;;;;;10.68;5.25;;;19.00;55.20;;;;;;5046978;28;20243;-76
2023/06/01 07:22:41;;;;;;;9.80;5.07;;;19.00;55.30;;;;;;5052030;28;20199;-75
2023/06/01 07:25:09;;;;;;;15.35;5.40;;;19.00;55.30;;;;;;5053309;28;20251;-78
2023/06/01 07:27:37;;;;;;;20.38;4.93;;;19.00;55.30;;;;;;5053907;28;20306;-81
2023/06/01 07:30:08;;;;;;;10.10;5.20;;;19.00;55.20;;;;;;5053425;28;20311;-79
2023/06/01 07:32:36;;;;;;;13.20;5.28;;;19.00;55.40;;;;;;5052883;28;20236;-81
2023/06/01 07:35:05;;;;;;;13.20;5.03;;;19.00;55.30;;;;;;5049846;28;20192;-80
2023/06/01 07:37:32;;;;;;;12.70;5.18;;;19.00;55.20;;;;;;5015841;28;20201;-78
2023/06/01 07:40:00;;;;;;;14.70;5.43;;;19.00;55.30;;;;;;5044404;28;20200;-78
2023/06/01 07:42:27;;;;;;;8.82;4.95;;;19.00;55.50;;;;;;5052790;28;20275;-75
2023/06/01 07:44:54;;;;;;;13.20;5.00;;;19.00;56.00;;;;;;5052865;28;20192;-75
2023/06/01 07:47:25;;;;;;;12.45;5.28;;;19.10;55.50;;;;;;5053307;28;20298;-75
2023/06/01 07:49:52;;;;;;;12.05;5.55;;;19.00;55.50;;;;;;5053922;28;20187;-74
2023/06/01 07:52:19;;;;;;;10.77;5.22;;;19.00;56.30;;;;;;5051956;28;20676;-75
2023/06/01 07:54:47;;;;;;;20.15;5.10;;;19.00;56.30;;;;;;5050506;28;20231;-75
2023/06/01 07:57:14;;;;;;;20.23;5.05;;;19.10;55.80;;;;;;5052555;28;20219;-72
2023/06/01 07:59:41;;;;;;;11.52;4.82;;;19.00;55.80;;;;;;5051468;28;21016;-77
2023/06/01 08:02:10;;;;;;;10.95;5.32;;;19.00;55.80;;;;;;5036258;28;20703;-74
2023/06/01 08:04:40;;;;;;;12.07;5.43;;;19.10;55.90;;;;;;5052830;28;20684;-73
2023/06/01 08:07:08;;;;;;;9.85;4.72;;;19.10;55.90;;;;;;5034312;28;20263;-75
2023/06/01 08:09:37;;;;;;;13.02;4.97;;;19.10;55.90;;;;;;5051967;28;20693;-75
2023/06/01 08:12:06;;;;;;;10.40;4.70;;;19.10;56.60;;;;;;5053473;28;20220;-78
2023/06/01 08:14:34;;;;;;;8.77;4.55;;;19.10;55.90;;;;;;5050390;28;20233;-74
2023/06/01 08:17:02;;;;;;;15.32;5.60;;;19.10;56.00;;;;;;5056663;28;20310;-74
2023/06/01 08:19:29;;;;;;;11.63;4.90;;;19.10;56.00;;;;;;5056344;28;20194;-74
2023/06/01 08:21:58;;;;;;;17.30;5.32;;;19.10;56.10;;;;;;5072216;28;20233;-74
2023/06/01 08:24:25;;;;;;;14.57;5.18;;;19.10;56.00;;;;;;5071527;28;20637;-74
2023/06/01 08:26:56;;;;;;;9.82;5.13;;;19.10;56.00;;;;;;5064518;28;20747;-72
2023/06/01 08:29:23;;;;;;;25.63;5.05;;;19.10;56.00;;;;;;5056132;28;20537;-72
2023/06/01 08:31:50;;;;;;;11.18;5.25;;;19.20;56.10;;;;;;5072976;28;20224;-74
2023/06/01 08:34:17;;;;;;;12.32;5.32;;;19.10;56.00;;;;;;5056321;28;20555;-76
2023/06/01 08:36:45;;;;;;;13.00;4.82;;;19.10;56.10;;;;;;5052113;28;20265;-72
2023/06/01 08:39:25;;;;;;;14.57;5.40;;;19.10;56.10;;;;;;5051978;28;20198;-71
2023/06/01 08:42:05;;;;;;;10.27;5.32;;;19.10;56.10;;;;;;5046148;28;20310;-74
2023/06/01 08:44:36;;;;;;;14.88;6.05;;;19.10;56.10;;;;;;5037315;28;20880;-74
2023/06/01 08:47:04;;;;;;;9.70;4.93;;;19.20;56.20;;;;;;5051933;28;20701;-75
2023/06/01 08:49:32;;;;;;;11.20;5.35;;;19.20;56.10;;;;;;5053138;28;20194;-74
2023/06/01 08:52:02;;;;;;;15.27;5.30;;;19.20;56.20;;;;;;5048551;28;20311;-77
2023/06/01 08:54:32;;;;;;;10.93;4.97;;;19.20;56.20;;;;;;5034551;28;20246;-75
2023/06/01 08:57:02;;;;;;;10.70;5.60;;;19.10;56.00;;;;;;5052424;28;20226;-75
2023/06/01 08:59:30;;;;;;;10.82;5.20;;;19.20;56.10;;;;;;5052104;28;20192;-74
2023/06/01 09:01:59;;;;;;;13.55;5.13;;;19.20;56.20;;;;;;5051465;28;20844;-72
2023/06/01 09:04:26;;;;;;;12.23;5.10;;;19.20;56.10;;;;;;5051339;28;20199;-73
2023/06/01 09:06:53;;;;;;;11.80;5.20;;;19.20;56.10;;;;;;5051372;28;20764;-72
2023/06/01 09:09:21;;;;;;;10.25;5.43;;;19.20;56.50;;;;;;5051857;28;20291;-77
2023/06/01 09:12:17;;;;;;;14.68;5.68;;;19.20;56.20;;;;;;5052695;28;20219;-72
2023/06/01 09:14:44;;;;;;;15.02;5.88;;;19.20;56.00;;;;;;5051514;28;20203;-77
2023/06/01 09:17:15;;;;;;;13.20;5.55;;;19.20;56.10;;;;;;5052235;28;20227;-74
2023/06/01 09:19:43;;;;;;;15.50;6.00;;;19.30;56.30;;;;;;5054547;28;20264;-73
2023/06/01 09:22:11;;;;;;;11.70;5.95;;;19.20;56.40;;;;;;5053989;28;20212;-73
2023/06/01 09:24:40;;;;;;;13.10;5.60;;;19.30;56.60;;;;;;5050818;28;20671;-72
2023/06/01 09:27:09;;;;;;;15.75;5.72;;;19.30;57.10;;;;;;5050959;28;20234;-73
2023/06/01 09:29:36;;;;;;;9.40;5.40;;;19.30;57.00;;;;;;5050597;28;20237;-72
2023/06/01 09:32:03;;;;;;;13.15;5.30;;;19.30;57.20;;;;;;5051623;28;20315;-74
2023/06/01 09:34:31;;;;;;;12.02;5.82;;;19.30;57.30;;;;;;5050559;28;20187;-74
2023/06/01 09:37:06;;;;;;;11.88;5.85;;;19.30;57.10;;;;;;5051522;28;20227;-72
2023/06/01 09:39:35;;;;;;;11.02;5.70;;;19.30;57.20;;;;;;5051017;28;20889;-71
2023/06/01 09:42:02;;;;;;;12.73;5.15;;;19.30;57.20;;;;;;5052154;28;20211;-72
2023/06/01 09:44:32;;;;;;;14.80;6.65;;;19.30;57.20;;;;;;5051345;28;20194;-72
2023/06/01 09:47:02;;;;;;;13.32;5.18;;;19.30;57.20;;;;;;5051508;28;20231;-74
2023/06/01 09:49:31;;;;;;;12.98;5.55;;;19.30;57.00;;;;;;5051224;28;20362;-72
2023/06/01 09:52:12;;;;;;;13.32;5.65;;;19.30;57.10;;;;;;5034158;28;20218;-73
2023/06/01 09:54:40;;;;;;;13.30;5.80;;;19.30;57.00;;;;;;5050232;28;20191;-75
2023/06/01 09:57:08;;;;;;;8.63;5.13;;;19.30;57.10;;;;;;5050665;28;20264;-74
2023/06/01 09:59:42;;;;;;;14.35;5.30;;;19.40;57.00;;;;;;5050731;28;20283;-74
2023/06/01 10:02:15;;;;;;;12.32;4.95;;;19.30;56.90;;;;;;5050462;28;20705;-73
2023/06/01 10:04:45;;;;;;;17.58;4.97;;;19.30;56.90;;;;;;5051030;28;20279;-74
2023/06/01 10:07:14;;;;;;;11.85;5.05;;;19.40;57.10;;;;;;5050738;28;20311;-74
2023/06/01 10:09:44;;;;;;;10.85;4.88;;;19.40;56.90;;;;;;5050864;28;20188;-74
2023/06/01 10:12:11;;;;;;;13.85;6.10;;;19.40;56.90;;;;;;5050861;28;20649;-73
2023/06/01 10:14:40;;;;;;;12.25;5.22;;;19.40;56.80;;;;;;5050893;28;20199;-73
2023/06/01 10:17:09;;;;;;;11.85;5.00;;;19.40;56.80;;;;;;5050735;28;20734;-74
2023/06/01 10:19:38;;;;;;;22.30;6.00;;;19.40;56.80;;;;;;5050008;28;20199;-74
2023/06/01 10:22:06;;;;;;;20.15;5.60;;;19.40;56.90;;;;;;5050704;28;20743;-73
2023/06/01 10:24:34;;;;;;;15.13;5.38;;;19.40;56.80;;;;;;5050161;28;20188;-75
2023/06/01 10:27:07;;;;;;;22.02;5.90;;;19.40;56.70;;;;;;5051186;28;20319;-74
2023/06/01 10:29:34;;;;;;;14.82;5.32;;;19.40;56.80;;;;;;5051002;28;20199;-75
2023/06/01 10:32:03;;;;;;;22.50;5.68;;;19.40;56.80;;;;;;5032343;28;20315;-76
2023/06/01 10:34:41;;;;;;;15.52;5.82;;;19.40;56.60;;;;;;5051371;28;20281;-75
2023/06/01 10:37:13;;;;;;;16.17;5.40;;;19.50;56.70;;;;;;5043931;28;20227;-76
2023/06/01 10:39:45;;;;;;;11.57;5.93;;;19.50;56.90;;;;;;5039263;28;20735;-75
2023/06/01 10:42:38;;;;;;;12.57;5.07;;;19.50;56.60;;;;;;5049917;28;20299;-75
2023/06/01 10:45:39;;;;;;;12.00;5.63;;;19.40;56.50;;;;;;5050496;28;20195;-75
2023/06/01 10:48:10;;;;;;;13.55;5.57;;;19.50;56.50;;;;;;5049745;28;20237;-75
2023/06/01 10:50:38;;;;;;;12.38;5.22;;;19.50;56.40;;;;;;5054542;28;20196;-75
2023/06/01 10:53:30;;;;;;;14.85;6.05;;;19.50;57.10;;;;;;5054846;28;20238;-76
2023/06/01 10:56:21;;;;;;;16.92;6.25;;;19.50;56.40;;;;;;5054353;28;20188;-76
2023/06/01 10:59:09;;;;;;;12.82;5.43;;;19.50;56.30;;;;;;5052677;28;20212;-77
2023/06/01 11:01:37;;;;;;;15.27;5.97;;;19.50;56.30;;;;;;5053691;28;20249;-76
2023/06/01 11:04:07;;;;;;;12.18;5.53;;;19.50;56.30;;;;;;5054389;28;20681;-76
2023/06/01 11:06:35;;;;;;;12.13;5.57;;;19.50;56.30;;;;;;5054350;28;20275;-77
2023/06/01 11:09:05;;;;;;;13.50;6.15;;;19.50;56.20;;;;;;5052450;28;20292;-77
2023/06/01 11:11:58;;;;;;;15.82;5.55;;;19.50;56.20;;;;;;5042263;28;20278;-76
2023/06/01 11:14:29;;;;;;;11.27;5.18;;;19.50;56.10;;;;;;5052617;28;20634;-76
2023/06/01 11:16:57;;;;;;;10.52;5.47;;;19.50;56.10;;;;;;5052672;28;20202;-77
2023/06/01 11:19:27;;;;;;;15.45;5.82;;;19.50;56.10;;;;;;5053254;28;20242;-75
2023/06/01 11:22:00;;;;;;;15.82;5.35;;;19.50;56.10;;;;;;5052703;28;20219;-76
2023/06/01 11:24:34;;;;;;;10.95;5.38;;;19.50;56.00;;;;;;5045026;28;20196;-76
2023/06/01 11:27:07;;;;;;;12.23;5.40;;;19.50;55.90;;;;;;5053257;28;20179;-76
2023/06/01 11:29:34;;;;;;;10.77;5.45;;;19.50;56.00;;;;;;5049435;28;20271;-77
2023/06/01 11:32:05;;;;;;;10.70;5.20;;;19.50;56.00;;;;;;5051861;28;20692;-76
2023/06/01 11:34:37;;;;;;;11.85;5.70;;;19.60;56.00;;;;;;5049390;28;20270;-77
2023/06/01 11:37:05;;;;;;;12.75;5.10;;;19.60;56.00;;;;;;5053015;28;20558;-76
2023/06/01 11:39:33;;;;;;;14.68;5.78;;;19.50;55.80;;;;;;5053016;28;20186;-76
2023/06/01 11:42:08;;;;;;;12.77;5.68;;;19.60;56.50;;;;;;5040451;28;20326;-77
2023/06/01 11:44:39;;;;;;;14.07;5.38;;;19.50;55.80;;;;;;5034375;28;20296;-77
2023/06/01 11:47:08;;;;;;;13.55;5.50;;;19.60;55.90;;;;;;5033472;28;20185;-77
2023/06/01 11:49:44;;;;;;;12.57;4.97;;;19.50;55.70;;;;;;5049468;28;20200;-75
2023/06/01 11:52:12;;;;;;;12.85;5.65;;;19.60;55.80;;;;;;5052148;28;20192;-77
2023/06/01 11:54:39;;;;;;;14.23;5.43;;;19.60;55.80;;;;;;5032226;28;21782;-76
2023/06/01 11:57:08;;;;;;;9.93;5.45;;;19.60;55.70;;;;;;5034218;28;20199;-77
2023/06/01 11:59:44;;;;;;;12.35;5.65;;;19.60;55.70;;;;;;5052877;28;20202;-79
2023/06/01 12:02:21;;;;;;;10.07;4.75;;;19.60;55.80;;;;;;5045381;28;20738;-76
2023/06/01 12:05:05;;;;;;;12.07;5.28;;;19.60;55.80;;;;;;5041373;28;20196;-77
2023/06/01 12:07:33;;;;;;;12.82;5.38;;;19.60;55.70;;;;;;5045032;28;20322;-76
2023/06/01 12:10:01;;;;;;;16.20;5.55;;;19.70;55.70;;;;;;5049011;28;20345;-75
2023/06/01 12:12:33;;;;;;;9.75;5.15;;;19.70;55.70;;;;;;5052247;28;20195;-75
2023/06/01 12:15:00;;;;;;;10.35;5.05;;;19.70;55.80;;;;;;5051437;28;20257;-76
2023/06/01 12:17:46;;;;;;;11.77;5.28;;;19.70;55.90;;;;;;5058798;28;20193;-75
2023/06/01 12:20:26;;;;;;;10.32;5.30;;;19.70;55.80;;;;;;5058845;28;20191;-75
2023/06/01 12:22:55;;;;;;;10.75;5.50;;;19.70;55.90;;;;;;5068733;28;20297;-76
2023/06/01 12:25:22;;;;;;;12.43;5.50;;;19.70;55.90;;;;;;5043651;28;20184;-76
2023/06/01 12:28:04;;;;;;;9.13;4.90;;;19.80;55.90;;;;;;5061170;28;20230;-75
2023/06/01 12:30:32;;;;;;;18.23;5.57;;;19.80;55.90;;;;;;5059536;28;20190;-75
2023/06/01 12:33:00;;;;;;;12.77;5.40;;;19.80;55.80;;;;;;5053393;28;20819;-75
2023/06/01 12:35:29;;;;;;;14.85;5.40;;;19.80;55.80;;;;;;5028463;28;20278;-75
2023/06/01 12:38:06;;;;;;;13.52;5.47;;;19.90;55.80;;;;;;5059312;28;20229;-75
2023/06/01 12:40:34;;;;;;;12.13;4.57;;;19.90;55.60;;;;;;5055379;28;20233;-80
2023/06/01 12:43:02;;;;;;;12.05;5.35;;;19.90;55.60;;;;;;5066905;28;20728;-80
2023/06/01 12:45:36;;;;;;;13.90;5.30;;;20.00;55.60;;;;;;5057992;28;20187;-75
2023/06/01 12:48:03;;;;;;;10.63;5.13;;;20.00;55.60;;;;;;5048516;28;20242;-76
2023/06/01 12:50:32;;;;;;;13.27;5.13;;;20.00;55.60;;;;;;5050188;28;20214;-75
2023/06/01 12:53:00;;;;;;;9.68;5.03;;;20.00;55.60;;;;;;5045323;28;20282;-76